Time;durP1;ratioP1;P1;durP2;ratioP2;P2;SDS_P1;SDS_P2;PMS_P1;PMS_P2;Temp;Humidity;BMP_temperature;BMP_pressure;BME280_temperature;BME280_humidity;BME280_pressure;Samples;Min_cycle;Max_cycle;Signal;HPM_P1;HPM_P2
2022/04/20 00:02:23;;;;;;;19.90;17.52;;;5.10;99.90;;;;;;5090840;28;20058;-74
2022/04/20 00:04:49;;;;;;;18.05;16.15;;;5.10;99.90;;;;;;5091341;28;20024;-73
2022/04/20 00:07:15;;;;;;;18.73;16.73;;;5.10;99.90;;;;;;5090630;28;20043;-74
2022/04/20 00:09:59;;;;;;;18.30;16.30;;;5.10;99.90;;;;;;5091275;28;20516;-74
2022/04/20 00:12:26;;;;;;;19.70;17.70;;;5.10;99.90;;;;;;5090644;28;20024;-74
2022/04/20 00:15:10;;;;;;;18.63;16.70;;;5.10;99.90;;;;;;5073073;28;20115;-74
2022/04/20 00:17:36;;;;;;;17.77;15.98;;;5.10;99.90;;;;;;5094658;28;20067;-74
2022/04/20 00:20:01;;;;;;;17.45;15.65;;;5.10;99.90;;;;;;5094945;28;20048;-74
2022/04/20 00:22:27;;;;;;;16.90;14.57;;;5.10;99.90;;;;;;5080729;28;20050;-74
2022/04/20 00:24:53;;;;;;;17.10;15.30;;;5.10;99.90;;;;;;5074545;28;20029;-74
2022/04/20 00:27:19;;;;;;;15.07;13.32;;;5.10;99.90;;;;;;5073850;28;20039;-74
2022/04/20 00:29:44;;;;;;;15.43;13.93;;;5.10;99.90;;;;;;5074486;28;20469;-75
2022/04/20 00:32:10;;;;;;;15.85;14.15;;;5.10;99.90;;;;;;5074574;28;20032;-73
2022/04/20 00:34:35;;;;;;;14.80;13.23;;;5.10;99.90;;;;;;5073892;28;20041;-73
2022/04/20 00:37:01;;;;;;;13.18;11.93;;;5.10;99.90;;;;;;5074358;28;20036;-74
2022/04/20 00:39:27;;;;;;;13.88;12.48;;;5.10;99.90;;;;;;5073728;28;20048;-73
2022/04/20 00:41:53;;;;;;;14.18;12.77;;;5.10;99.90;;;;;;5074303;28;20056;-73
2022/04/20 00:44:20;;;;;;;13.70;12.40;;;5.10;99.90;;;;;;5073594;28;20029;-74
2022/04/20 00:46:47;;;;;;;13.73;12.43;;;5.10;99.90;;;;;;5074101;28;20036;-73
2022/04/20 00:49:14;;;;;;;13.30;12.00;;;5.10;99.90;;;;;;5074168;28;20025;-73
2022/04/20 00:51:59;;;;;;;12.77;11.57;;;5.10;99.90;;;;;;5074285;28;20126;-74
2022/04/20 00:54:25;;;;;;;13.10;11.90;;;5.10;99.90;;;;;;5073145;28;20074;-73
2022/04/20 00:56:51;;;;;;;12.98;11.75;;;5.10;99.90;;;;;;5073919;28;20036;-73
2022/04/20 00:59:20;;;;;;;12.95;11.70;;;5.10;99.90;;;;;;5073334;28;20025;-75
2022/04/20 01:01:46;;;;;;;13.23;11.93;;;5.10;99.90;;;;;;5073516;28;20048;-74
2022/04/20 01:04:12;;;;;;;11.88;10.75;;;5.10;99.90;;;;;;5073787;28;20043;-74
2022/04/20 01:06:37;;;;;;;13.07;11.77;;;5.10;99.90;;;;;;5073143;28;20450;-74
2022/04/20 01:09:03;;;;;;;12.25;10.90;;;5.10;99.90;;;;;;5073697;28;20024;-73
2022/04/20 01:11:29;;;;;;;12.23;11.07;;;5.10;99.90;;;;;;5073071;28;20024;-74
2022/04/20 01:13:55;;;;;;;14.82;12.30;;;5.10;99.90;;;;;;5073392;28;20024;-73
2022/04/20 01:16:21;;;;;;;12.48;11.27;;;5.10;99.90;;;;;;5072998;28;20024;-73
2022/04/20 01:18:49;;;;;;;13.05;11.75;;;5.10;99.90;;;;;;5073212;28;20025;-73
2022/04/20 01:21:15;;;;;;;13.07;11.68;;;5.10;99.90;;;;;;5073557;28;20025;-74
2022/04/20 01:23:42;;;;;;;12.73;11.43;;;5.10;99.90;;;;;;5072914;28;20025;-74
2022/04/20 01:26:08;;;;;;;12.57;11.38;;;5.00;99.90;;;;;;5073320;28;20028;-73
2022/04/20 01:28:41;;;;;;;11.98;10.88;;;5.10;99.90;;;;;;5072681;28;20029;-73
2022/04/20 01:31:07;;;;;;;12.95;11.50;;;5.10;99.90;;;;;;5073326;28;20043;-73
2022/04/20 01:33:33;;;;;;;13.95;12.48;;;5.10;99.90;;;;;;5072354;28;20464;-73
2022/04/20 01:35:59;;;;;;;13.77;11.63;;;5.00;99.90;;;;;;5073203;28;20032;-74
2022/04/20 01:38:24;;;;;;;13.10;11.70;;;5.00;99.90;;;;;;5072436;28;20381;-73
2022/04/20 01:40:50;;;;;;;12.35;11.05;;;5.10;99.90;;;;;;5073037;28;20330;-73
2022/04/20 01:43:16;;;;;;;12.88;11.57;;;5.10;99.90;;;;;;5072781;28;20099;-73
2022/04/20 01:45:42;;;;;;;12.60;11.35;;;5.00;99.90;;;;;;5071863;28;20445;-73
2022/04/20 01:48:07;;;;;;;13.00;11.43;;;5.10;99.90;;;;;;5072888;28;20175;-73
2022/04/20 01:50:33;;;;;;;12.85;11.55;;;5.00;99.90;;;;;;5072171;28;20025;-73
2022/04/20 01:52:59;;;;;;;13.43;12.05;;;5.00;99.90;;;;;;5072768;28;20024;-73
2022/04/20 01:55:25;;;;;;;12.60;11.30;;;5.00;99.90;;;;;;5071929;28;20418;-72
2022/04/20 01:57:52;;;;;;;12.85;11.65;;;5.00;99.90;;;;;;5073316;28;20073;-73
2022/04/20 02:00:18;;;;;;;12.80;11.50;;;5.00;99.90;;;;;;5091244;28;20083;-73
2022/04/20 02:02:43;;;;;;;14.35;12.75;;;4.90;99.90;;;;;;5091983;28;20074;-73
2022/04/20 02:05:11;;;;;;;13.98;12.57;;;4.90;99.90;;;;;;5092719;28;20205;-73
2022/04/20 02:07:38;;;;;;;13.77;12.43;;;4.90;99.90;;;;;;5092114;28;20110;-73
2022/04/20 02:10:05;;;;;;;14.13;12.25;;;4.90;99.90;;;;;;5092742;28;20028;-73
2022/04/20 02:12:32;;;;;;;15.00;13.40;;;4.80;99.90;;;;;;5088859;28;20024;-72
2022/04/20 02:14:57;;;;;;;13.80;12.43;;;4.80;99.90;;;;;;5072431;28;20028;-72
2022/04/20 02:17:23;;;;;;;14.02;12.57;;;4.80;99.90;;;;;;5071728;28;20021;-74
2022/04/20 02:19:49;;;;;;;14.63;13.10;;;4.80;99.90;;;;;;5071971;28;20056;-73
2022/04/20 02:22:15;;;;;;;15.18;13.48;;;4.70;99.90;;;;;;5072275;28;20024;-73
2022/04/20 02:24:41;;;;;;;15.35;13.85;;;4.70;99.90;;;;;;5071618;28;20549;-73
2022/04/20 02:27:09;;;;;;;16.63;13.88;;;4.70;99.90;;;;;;5071831;28;20029;-73
2022/04/20 02:29:34;;;;;;;15.27;13.70;;;4.70;99.90;;;;;;5071435;28;20476;-73
2022/04/20 02:32:00;;;;;;;15.60;14.00;;;4.70;99.90;;;;;;5072100;28;20020;-73
2022/04/20 02:34:26;;;;;;;16.80;15.10;;;4.60;99.90;;;;;;5071130;28;20060;-73
2022/04/20 02:36:52;;;;;;;16.33;14.73;;;4.70;99.90;;;;;;5072323;28;20079;-73
2022/04/20 02:39:19;;;;;;;16.33;14.50;;;4.60;99.90;;;;;;5071390;28;20468;-73
2022/04/20 02:42:06;;;;;;;16.40;14.70;;;4.70;99.90;;;;;;5071412;28;20089;-73
2022/04/20 02:44:33;;;;;;;16.60;14.90;;;4.60;99.90;;;;;;5070950;28;20024;-73
2022/04/20 02:46:58;;;;;;;15.82;14.27;;;4.70;99.90;;;;;;5071788;28;20036;-73
2022/04/20 02:49:24;;;;;;;16.70;15.10;;;4.70;99.90;;;;;;5053274;28;20032;-74
2022/04/20 02:51:49;;;;;;;16.63;14.70;;;4.70;99.90;;;;;;5071598;28;20365;-73
2022/04/20 02:54:16;;;;;;;16.45;14.85;;;4.70;99.90;;;;;;5072030;28;20454;-73
2022/04/20 02:56:41;;;;;;;16.75;14.70;;;4.70;99.90;;;;;;5071098;28;20037;-73
2022/04/20 02:59:07;;;;;;;17.17;15.38;;;4.70;99.90;;;;;;5071667;28;20048;-73
2022/04/20 03:01:32;;;;;;;17.23;14.93;;;4.70;99.90;;;;;;5071281;28;20044;-73
2022/04/20 03:03:59;;;;;;;16.85;15.25;;;4.70;99.90;;;;;;5071848;28;20029;-73
2022/04/20 03:06:25;;;;;;;17.33;15.63;;;4.70;99.90;;;;;;5071331;28;20032;-77
2022/04/20 03:08:51;;;;;;;16.33;14.68;;;4.70;99.90;;;;;;5071618;28;20087;-73
2022/04/20 03:11:17;;;;;;;17.90;16.00;;;4.70;99.90;;;;;;5071613;28;20028;-72
2022/04/20 03:13:42;;;;;;;16.85;14.90;;;4.70;99.90;;;;;;5070656;28;20037;-72
2022/04/20 03:16:08;;;;;;;18.10;15.10;;;4.70;99.90;;;;;;5071933;28;20032;-72
2022/04/20 03:18:33;;;;;;;16.75;15.10;;;4.70;99.90;;;;;;5070944;28;20372;-72
2022/04/20 03:21:01;;;;;;;16.98;15.25;;;4.80;99.90;;;;;;5071620;28;20079;-73
2022/04/20 03:23:28;;;;;;;17.63;15.73;;;4.70;99.90;;;;;;5070866;28;20029;-73
2022/04/20 03:25:53;;;;;;;15.88;14.27;;;4.80;99.90;;;;;;5071548;28;20036;-73
2022/04/20 03:28:19;;;;;;;16.35;14.65;;;4.80;99.90;;;;;;5071241;28;20029;-73
2022/04/20 03:30:45;;;;;;;15.77;14.05;;;4.80;99.90;;;;;;5070916;28;20166;-73
2022/04/20 03:33:10;;;;;;;16.98;15.27;;;4.80;99.90;;;;;;5071155;28;20029;-73
2022/04/20 03:35:39;;;;;;;16.58;14.80;;;4.80;99.90;;;;;;5070881;28;20071;-73
2022/04/20 03:38:06;;;;;;;17.30;15.45;;;4.80;99.90;;;;;;5071138;28;20162;-73
2022/04/20 03:40:32;;;;;;;16.65;14.93;;;4.80;99.90;;;;;;5070836;28;20017;-73
2022/04/20 03:42:58;;;;;;;17.05;15.30;;;4.80;99.90;;;;;;5071407;28;20334;-73
2022/04/20 03:45:24;;;;;;;15.90;14.40;;;4.80;99.90;;;;;;5070990;28;20146;-73
2022/04/20 03:47:49;;;;;;;17.15;15.45;;;4.80;99.90;;;;;;5070648;28;20024;-73
2022/04/20 03:50:15;;;;;;;17.55;15.52;;;4.70;99.90;;;;;;5071859;28;20028;-73
2022/04/20 03:52:41;;;;;;;17.52;15.10;;;4.70;99.90;;;;;;5074911;28;20040;-73
2022/04/20 03:55:07;;;;;;;17.45;15.65;;;4.80;99.90;;;;;;5074790;28;20386;-73
2022/04/20 03:57:32;;;;;;;16.77;15.13;;;4.70;99.90;;;;;;5074396;28;20033;-73
2022/04/20 03:59:58;;;;;;;17.58;15.77;;;4.80;99.90;;;;;;5074772;28;20048;-73
2022/04/20 04:02:24;;;;;;;16.50;14.80;;;4.80;99.90;;;;;;5092490;28;20089;-73
2022/04/20 04:04:49;;;;;;;16.98;14.80;;;4.80;99.90;;;;;;5094541;28;20020;-73
2022/04/20 04:07:15;;;;;;;18.08;14.07;;;4.80;99.90;;;;;;5094841;28;20334;-73
2022/04/20 04:09:41;;;;;;;17.50;15.70;;;4.80;99.90;;;;;;5076195;28;20458;-73
2022/04/20 04:12:07;;;;;;;16.50;14.82;;;4.80;99.90;;;;;;5077907;28;20020;-73
2022/04/20 04:14:38;;;;;;;18.73;15.63;;;4.80;99.90;;;;;;5074140;28;20028;-73
2022/04/20 04:17:04;;;;;;;16.80;15.10;;;4.80;99.90;;;;;;5074834;28;20097;-73
2022/04/20 04:19:30;;;;;;;16.23;14.52;;;4.80;99.90;;;;;;5056761;28;20032;-73
2022/04/20 04:21:56;;;;;;;18.50;15.35;;;4.80;99.90;;;;;;5069419;28;20112;-73
2022/04/20 04:24:37;;;;;;;17.60;15.52;;;4.80;99.90;;;;;;5094007;28;20032;-73
2022/04/20 04:27:08;;;;;;;17.52;15.73;;;4.90;99.90;;;;;;5074776;28;20036;-72
2022/04/20 04:29:34;;;;;;;20.10;15.00;;;4.90;99.90;;;;;;5076075;28;20435;-74
2022/04/20 04:32:00;;;;;;;17.83;15.38;;;4.90;99.90;;;;;;5094804;28;20038;-73
2022/04/20 04:34:26;;;;;;;17.95;15.48;;;5.00;99.90;;;;;;5094670;28;20073;-73
2022/04/20 04:36:53;;;;;;;18.23;16.42;;;5.00;99.90;;;;;;5093938;28;20039;-73
2022/04/20 04:39:21;;;;;;;18.70;15.68;;;5.00;99.90;;;;;;5092040;28;20031;-73
2022/04/20 04:41:50;;;;;;;17.95;16.05;;;5.10;99.90;;;;;;5075074;28;20492;-72
2022/04/20 04:44:17;;;;;;;18.25;16.35;;;5.10;99.90;;;;;;5073830;28;20027;-72
2022/04/20 04:49:27;;;;;;;17.85;15.52;;;5.20;99.90;;;;;;5074095;28;20047;-73
2022/04/20 04:51:54;;;;;;;16.90;15.18;;;5.30;99.90;;;;;;5073457;28;20028;-72
2022/04/20 04:54:20;;;;;;;18.67;16.70;;;5.40;99.90;;;;;;5074161;28;20109;-72
2022/04/20 04:56:45;;;;;;;17.40;15.70;;;5.40;99.90;;;;;;5073411;28;20078;-73
2022/04/20 04:59:11;;;;;;;19.83;15.77;;;5.50;99.90;;;;;;5073773;28;20021;-73
2022/04/20 05:01:36;;;;;;;17.90;15.98;;;5.50;99.90;;;;;;5072937;28;20055;-73
2022/04/20 05:04:02;;;;;;;18.52;16.30;;;5.50;99.90;;;;;;5073515;28;20020;-73
2022/04/20 05:06:28;;;;;;;17.25;15.20;;;5.50;99.90;;;;;;5073395;28;20468;-72
2022/04/20 05:08:53;;;;;;;17.00;15.23;;;5.60;99.90;;;;;;5073360;28;20082;-73
2022/04/20 05:11:19;;;;;;;17.80;15.98;;;5.60;99.90;;;;;;5073737;28;20031;-74
2022/04/20 05:13:45;;;;;;;17.52;15.68;;;5.60;99.90;;;;;;5073355;28;20020;-74
2022/04/20 05:16:11;;;;;;;17.27;15.55;;;5.70;99.90;;;;;;5073746;28;20460;-74
2022/04/20 05:18:37;;;;;;;19.23;16.55;;;5.70;99.90;;;;;;5072877;28;20028;-75
2022/04/20 05:21:02;;;;;;;17.63;15.82;;;5.80;99.90;;;;;;5073613;28;20333;-74
2022/04/20 05:23:28;;;;;;;17.75;15.85;;;5.80;99.90;;;;;;5073295;28;20020;-73
2022/04/20 05:25:53;;;;;;;22.85;15.10;;;5.80;99.90;;;;;;5072429;28;20028;-74
2022/04/20 05:28:19;;;;;;;17.40;15.60;;;5.90;99.90;;;;;;5055708;28;20025;-74
2022/04/20 05:30:44;;;;;;;17.00;15.35;;;5.90;99.90;;;;;;5072500;28;20025;-74
2022/04/20 05:33:11;;;;;;;17.63;15.73;;;5.90;99.90;;;;;;5072914;28;20025;-74
2022/04/20 05:35:37;;;;;;;20.17;15.77;;;5.90;99.90;;;;;;5054590;28;20123;-74
2022/04/20 05:43:50;;;;;;;16.33;14.70;;;6.00;99.90;;;;;;5072089;28;20433;-73
2022/04/20 05:46:16;;;;;;;16.33;14.57;;;6.10;99.90;;;;;;5072943;28;20124;-74
2022/04/20 05:48:42;;;;;;;15.50;13.90;;;6.10;99.90;;;;;;5072480;28;20038;-74
2022/04/20 05:51:08;;;;;;;16.63;14.15;;;6.20;99.90;;;;;;5072452;28;20047;-72
2022/04/20 05:53:34;;;;;;;15.88;14.15;;;6.40;99.90;;;;;;5076683;28;20076;-72
2022/04/20 05:55:59;;;;;;;15.05;13.15;;;6.60;99.90;;;;;;5092392;28;20107;-72
2022/04/20 05:58:25;;;;;;;14.88;13.15;;;6.80;99.90;;;;;;5074649;28;20107;-73
2022/04/20 06:00:51;;;;;;;14.00;12.60;;;7.10;99.90;;;;;;5092231;28;20534;-73
2022/04/20 06:03:16;;;;;;;16.05;12.65;;;7.40;99.90;;;;;;5092896;28;20035;-73
2022/04/20 06:05:42;;;;;;;16.98;13.52;;;7.70;99.90;;;;;;5091830;28;20028;-73
2022/04/20 06:08:08;;;;;;;14.68;12.25;;;8.00;99.90;;;;;;5092550;28;20515;-74
2022/04/20 06:10:34;;;;;;;14.18;11.80;;;8.20;99.40;;;;;;5083458;28;20021;-74
2022/04/20 06:13:00;;;;;;;12.63;11.32;;;8.50;97.80;;;;;;5053197;28;20090;-74
2022/04/20 06:15:25;;;;;;;14.02;12.10;;;8.70;95.10;;;;;;5054390;28;20424;-73
2022/04/20 06:17:51;;;;;;;13.82;11.98;;;9.00;95.30;;;;;;5071745;28;20361;-73
2022/04/20 06:20:17;;;;;;;12.73;11.18;;;9.20;94.10;;;;;;5072281;28;20103;-73
2022/04/20 06:22:43;;;;;;;13.18;11.80;;;9.40;93.40;;;;;;5071826;28;20031;-73
2022/04/20 06:25:09;;;;;;;13.93;12.52;;;9.60;92.00;;;;;;5072256;28;20116;-73
2022/04/20 06:27:35;;;;;;;14.40;12.60;;;9.80;91.40;;;;;;5071714;28;20029;-73
2022/04/20 06:30:00;;;;;;;13.60;11.52;;;10.00;90.40;;;;;;5071465;28;20067;-73
2022/04/20 06:32:27;;;;;;;13.10;11.63;;;10.00;89.40;;;;;;5071621;28;20131;-73
2022/04/20 06:34:54;;;;;;;14.68;11.60;;;10.10;87.70;;;;;;5053316;28;20056;-74
2022/04/20 06:37:21;;;;;;;12.63;11.07;;;10.20;87.30;;;;;;5071834;28;20056;-73
2022/04/20 06:39:46;;;;;;;14.63;11.60;;;10.40;86.40;;;;;;5070614;28;20032;-73
2022/04/20 06:42:12;;;;;;;15.45;10.70;;;10.50;84.80;;;;;;5071538;28;20025;-73
2022/04/20 06:44:38;;;;;;;11.80;10.68;;;10.60;82.90;;;;;;5071396;28;20446;-73
2022/04/20 06:47:04;;;;;;;12.40;10.82;;;10.90;81.80;;;;;;5071180;28;20024;-74
2022/04/20 06:49:30;;;;;;;12.43;10.63;;;11.20;80.30;;;;;;5088477;28;20028;-73
2022/04/20 07:00:09;;;;;;;10.93;9.82;;;15.40;60.60;;;;;;5091210;28;20077;-74
2022/04/20 07:02:35;;;;;;;10.50;9.40;;;16.50;57.20;;;;;;5091999;28;20091;-74
2022/04/20 07:05:01;;;;;;;10.32;9.30;;;17.30;55.50;;;;;;5071526;28;20024;-74
2022/04/20 07:07:27;;;;;;;10.52;9.30;;;17.90;51.90;;;;;;5070978;28;20035;-74
2022/04/20 07:09:53;;;;;;;9.90;8.98;;;19.00;49.60;;;;;;5070604;28;20499;-74
2022/04/20 07:12:18;;;;;;;9.77;8.85;;;19.20;46.50;;;;;;5071366;28;20190;-74
2022/04/20 07:14:44;;;;;;;8.88;8.10;;;19.50;45.70;;;;;;5070870;28;20119;-75
2022/04/20 07:17:10;;;;;;;9.88;8.60;;;19.40;45.50;;;;;;5071412;28;20106;-74
2022/04/20 07:19:35;;;;;;;9.43;8.52;;;19.20;45.90;;;;;;5071640;28;20492;-74
2022/04/20 07:22:02;;;;;;;10.00;8.77;;;20.20;43.60;;;;;;5070733;28;20024;-74
2022/04/20 07:24:27;;;;;;;9.75;8.82;;;20.30;43.60;;;;;;5071697;28;20020;-73
2022/04/20 07:26:53;;;;;;;8.45;7.70;;;20.10;43.70;;;;;;5073901;28;20478;-73
2022/04/20 07:29:18;;;;;;;8.65;7.88;;;21.40;41.90;;;;;;5075538;28;20117;-72
2022/04/20 07:31:45;;;;;;;9.80;8.90;;;20.60;41.50;;;;;;5075041;28;20095;-77
2022/04/20 07:34:12;;;;;;;10.07;9.05;;;20.90;41.70;;;;;;5075266;28;20119;-73
2022/04/20 07:36:37;;;;;;;11.32;10.32;;;19.40;41.30;;;;;;5057136;28;20039;-73
2022/04/20 07:39:03;;;;;;;11.52;9.13;;;19.30;45.00;;;;;;5074409;28;20025;-73
2022/04/20 07:41:28;;;;;;;10.40;9.40;;;19.50;43.10;;;;;;5075192;28;20031;-73
2022/04/20 07:43:54;;;;;;;10.35;9.25;;;19.10;42.80;;;;;;5074529;28;20029;-74
2022/04/20 07:46:20;;;;;;;10.40;9.40;;;17.90;44.60;;;;;;5074925;28;20107;-73
2022/04/20 07:48:46;;;;;;;10.88;9.77;;;17.40;48.80;;;;;;5074632;28;20031;-77
2022/04/20 07:51:13;;;;;;;10.18;9.05;;;17.40;50.40;;;;;;5074882;28;20028;-74
2022/04/20 07:53:39;;;;;;;10.15;9.18;;;18.80;48.00;;;;;;5075053;28;20457;-73
2022/04/20 07:56:05;;;;;;;12.05;10.43;;;18.00;45.00;;;;;;5076168;28;20064;-74
2022/04/20 07:58:31;;;;;;;11.30;10.10;;;17.20;47.20;;;;;;5095179;28;20020;-73
2022/04/20 08:00:57;;;;;;;12.73;10.60;;;16.90;48.10;;;;;;5094566;28;20127;-73
2022/04/20 08:03:24;;;;;;;14.02;11.02;;;16.50;49.30;;;;;;5093048;28;20036;-73
2022/04/20 08:05:54;;;;;;;13.10;11.02;;;15.60;50.40;;;;;;5056764;28;20385;-73
2022/04/20 08:08:21;;;;;;;12.85;11.63;;;14.80;52.50;;;;;;5074892;28;20028;-73
2022/04/20 08:10:47;;;;;;;18.02;12.27;;;14.20;54.40;;;;;;5074220;28;20568;-76
2022/04/20 08:15:57;;;;;;;13.45;12.15;;;13.60;62.70;;;;;;5074114;28;20035;-74
2022/04/20 08:18:24;;;;;;;15.30;13.70;;;13.20;59.00;;;;;;5074650;28;20024;-73
2022/04/20 08:20:50;;;;;;;14.23;12.80;;;12.90;60.40;;;;;;5073926;28;20028;-74
2022/04/20 08:23:16;;;;;;;15.38;12.60;;;12.80;61.40;;;;;;5074478;28;20039;-73
2022/04/20 08:25:42;;;;;;;14.80;13.02;;;12.40;61.50;;;;;;5056502;28;20024;-73
2022/04/20 08:28:10;;;;;;;15.27;13.68;;;12.10;62.50;;;;;;5073822;28;20205;-73
2022/04/20 08:30:37;;;;;;;14.82;12.68;;;11.70;64.20;;;;;;5074210;28;20102;-73
2022/04/20 08:33:07;;;;;;;15.68;11.90;;;13.00;66.20;;;;;;5055789;28;20090;-73
2022/04/20 08:35:37;;;;;;;17.20;12.48;;;13.80;61.20;;;;;;5074124;28;20051;-73
2022/04/20 08:38:06;;;;;;;13.90;12.40;;;13.70;59.70;;;;;;5073245;28;20028;-73
2022/04/20 08:40:33;;;;;;;14.15;12.13;;;13.80;58.30;;;;;;5073930;28;20020;-73
2022/04/20 08:43:07;;;;;;;15.40;11.40;;;13.90;59.60;;;;;;5073258;28;20481;-74
2022/04/20 08:45:37;;;;;;;13.40;11.98;;;13.90;59.00;;;;;;5074113;28;20085;-73
2022/04/20 08:48:04;;;;;;;12.65;11.43;;;13.70;57.90;;;;;;5073396;28;20029;-73
2022/04/20 08:50:30;;;;;;;13.25;11.88;;;13.60;57.70;;;;;;5074031;28;20060;-73
2022/04/20 08:52:56;;;;;;;13.48;12.07;;;13.40;57.90;;;;;;5073372;28;20059;-73
2022/04/20 08:55:22;;;;;;;16.08;12.13;;;13.50;59.80;;;;;;5073986;28;20141;-73
2022/04/20 08:57:50;;;;;;;13.00;11.55;;;13.60;58.60;;;;;;5074128;28;20480;-73
2022/04/20 09:00:22;;;;;;;13.10;11.05;;;13.60;56.30;;;;;;5073747;28;20036;-73
2022/04/20 09:02:52;;;;;;;12.85;10.23;;;13.70;56.10;;;;;;5073964;28;20042;-72
2022/04/20 09:05:18;;;;;;;11.95;10.70;;;13.90;55.40;;;;;;5073721;28;20177;-73
2022/04/20 09:07:44;;;;;;;12.82;10.95;;;14.20;54.10;;;;;;5073677;28;20115;-73
2022/04/20 09:10:09;;;;;;;11.52;10.43;;;14.20;55.10;;;;;;5073047;28;20047;-73
2022/04/20 09:12:42;;;;;;;13.35;11.95;;;14.40;54.40;;;;;;5073499;28;20410;-73
2022/04/20 09:15:09;;;;;;;12.63;11.00;;;14.50;54.00;;;;;;5072725;28;20366;-73
2022/04/20 09:17:42;;;;;;;12.30;10.50;;;14.50;51.00;;;;;;5073403;28;20491;-73
2022/04/20 09:20:14;;;;;;;12.88;10.57;;;14.50;50.20;;;;;;5072938;28;20040;-72
2022/04/20 09:22:40;;;;;;;14.98;10.30;;;14.60;50.60;;;;;;5073262;28;20020;-72
2022/04/20 09:25:11;;;;;;;10.93;9.85;;;14.80;50.80;;;;;;5072728;28;20519;-73
2022/04/20 09:27:38;;;;;;;;;;;15.00;51.00;;;;;;5073894;28;20075;-72
2022/04/20 09:30:09;;;;;;;16.92;9.15;;;15.00;48.30;;;;;;5072624;28;19908;-73
2022/04/20 09:32:43;;;;;;;10.55;9.45;;;15.10;48.20;;;;;;5073206;28;20381;-73
2022/04/20 09:35:14;;;;;;;11.20;9.98;;;15.00;46.90;;;;;;5072757;28;20060;-73
2022/04/20 09:37:42;;;;;;;12.07;10.15;;;14.90;46.50;;;;;;5055117;28;20071;-73
2022/04/20 09:40:12;;;;;;;12.98;10.05;;;14.70;46.90;;;;;;5072287;28;20025;-73
2022/04/20 09:42:57;;;;;;;11.48;10.27;;;14.60;46.90;;;;;;5073309;28;20104;-73
2022/04/20 09:45:23;;;;;;;11.05;9.93;;;14.60;47.80;;;;;;5072509;28;20036;-73
2022/04/20 09:50:33;;;;;;;12.25;10.80;;;14.80;49.30;;;;;;5072772;28;20492;-73
2022/04/20 09:53:00;;;;;;;10.95;9.73;;;14.90;48.00;;;;;;5072272;28;20036;-73
2022/04/20 09:55:34;;;;;;;10.50;9.43;;;14.90;47.80;;;;;;5054772;28;20363;-73
2022/04/20 09:58:19;;;;;;;12.70;10.38;;;15.10;49.00;;;;;;5072011;28;20029;-73
2022/04/20 10:00:47;;;;;;;10.98;9.60;;;15.20;48.20;;;;;;5072179;28;20044;-73
2022/04/20 10:03:27;;;;;;;11.00;9.88;;;15.20;47.20;;;;;;5088438;28;20469;-73
2022/04/20 10:05:54;;;;;;;12.45;10.52;;;15.00;46.20;;;;;;5092655;28;20533;-73
2022/04/20 10:08:20;;;;;;;12.98;11.63;;;14.80;46.70;;;;;;5092154;28;20038;-73
2022/04/20 10:10:48;;;;;;;10.60;9.48;;;14.70;46.80;;;;;;5092729;28;20024;-72
2022/04/20 10:13:15;;;;;;;11.57;10.27;;;14.50;47.50;;;;;;5081722;28;20021;-73
2022/04/20 10:18:28;;;;;;;11.48;10.10;;;14.50;49.20;;;;;;5072173;28;20194;-73
2022/04/20 10:21:01;;;;;;;11.48;10.27;;;14.40;48.90;;;;;;5072002;28;20422;-73
2022/04/20 10:23:31;;;;;;;10.95;9.50;;;14.50;48.70;;;;;;5072309;28;20052;-73
2022/04/20 10:25:59;;;;;;;10.77;9.65;;;14.40;47.40;;;;;;5053643;28;20119;-74
2022/04/20 10:28:55;;;;;;;10.25;9.02;;;14.40;46.80;;;;;;5072186;28;20035;-73
2022/04/20 10:31:37;;;;;;;12.55;9.75;;;14.40;46.30;;;;;;5071587;28;20032;-73
2022/04/20 10:34:04;;;;;;;10.57;8.65;;;14.50;47.80;;;;;;5071827;28;20408;-73
2022/04/20 10:36:31;;;;;;;10.38;9.38;;;14.50;47.20;;;;;;5071913;28;20056;-72
2022/04/20 10:39:20;;;;;;;10.82;9.73;;;14.40;46.10;;;;;;5071698;28;20431;-72
2022/04/20 10:42:11;;;;;;;14.80;10.63;;;14.40;46.90;;;;;;5053866;28;20463;-73
2022/04/20 10:44:51;;;;;;;11.00;9.55;;;14.20;47.80;;;;;;5071702;28;20464;-72
2022/04/20 10:47:30;;;;;;;13.10;10.38;;;14.10;48.00;;;;;;5070954;28;20036;-73
2022/04/20 10:50:14;;;;;;;11.48;9.90;;;14.00;49.40;;;;;;5071719;28;20029;-73
2022/04/20 10:52:46;;;;;;;10.98;9.88;;;14.00;51.00;;;;;;5053842;28;20024;-73
2022/04/20 10:55:11;;;;;;;;;;;14.10;48.90;;;;;;5053454;28;20025;-73
2022/04/20 10:57:39;;;;;;;11.25;9.80;;;13.90;47.10;;;;;;5071861;28;20273;-72
2022/04/20 11:00:20;;;;;;;10.98;9.65;;;13.90;46.40;;;;;;5070428;28;20052;-72
2022/04/20 11:02:54;;;;;;;12.27;9.30;;;13.90;46.90;;;;;;5071534;28;20048;-73
2022/04/20 11:05:24;;;;;;;15.18;10.00;;;13.80;47.20;;;;;;5052907;28;20455;-72
2022/04/20 11:08:02;;;;;;;9.20;8.20;;;13.90;47.30;;;;;;5071700;28;20465;-72
2022/04/20 11:10:28;;;;;;;14.98;9.88;;;13.90;47.50;;;;;;5071688;28;20043;-73
2022/04/20 11:19:09;;;;;;;11.30;9.82;;;13.80;47.90;;;;;;5071530;28;20039;-72
2022/04/20 11:21:35;;;;;;;11.10;9.80;;;13.70;47.50;;;;;;5053190;28;20032;-72
2022/04/20 11:24:03;;;;;;;11.20;10.02;;;13.60;47.80;;;;;;5070963;28;20032;-74
2022/04/20 11:26:28;;;;;;;11.27;9.90;;;13.50;48.80;;;;;;5071512;28;20384;-72
2022/04/20 11:28:56;;;;;;;9.38;8.43;;;13.50;49.20;;;;;;5053446;28;20037;-72
2022/04/20 11:31:22;;;;;;;11.07;9.93;;;13.40;48.90;;;;;;5070735;28;20030;-72
2022/04/20 11:33:50;;;;;;;12.65;9.55;;;13.40;49.40;;;;;;5071608;28;20394;-73
2022/04/20 11:36:16;;;;;;;10.43;9.38;;;13.40;49.60;;;;;;5052831;28;20024;-73
2022/04/20 11:38:50;;;;;;;13.63;9.90;;;13.30;49.50;;;;;;5071269;28;20029;-73
2022/04/20 11:41:18;;;;;;;11.65;9.68;;;13.30;49.40;;;;;;5070660;28;20104;-73
2022/04/20 11:43:45;;;;;;;10.20;9.18;;;13.40;50.10;;;;;;5071370;28;20028;-73
2022/04/20 11:46:11;;;;;;;16.20;10.20;;;13.30;50.00;;;;;;5070803;28;20052;-73
2022/04/20 11:48:38;;;;;;;11.85;10.32;;;13.30;50.00;;;;;;5071277;28;20389;-73
2022/04/20 11:51:08;;;;;;;11.85;9.85;;;13.30;49.90;;;;;;5070754;28;20052;-73
2022/04/20 11:53:42;;;;;;;14.90;10.00;;;13.30;49.70;;;;;;5070962;28;20539;-72
2022/04/20 11:56:10;;;;;;;10.10;8.82;;;13.20;49.40;;;;;;5036204;28;20448;-72
2022/04/20 11:58:39;;;;;;;11.85;9.18;;;13.30;49.90;;;;;;5071081;28;20083;-72
2022/04/20 12:01:06;;;;;;;10.80;9.57;;;13.40;50.10;;;;;;5070374;28;20048;-72
2022/04/20 12:03:37;;;;;;;13.13;9.15;;;13.50;50.70;;;;;;5070898;28;20035;-72
2022/04/20 12:06:05;;;;;;;11.05;9.75;;;13.50;50.90;;;;;;5073329;28;20072;-72
2022/04/20 12:08:36;;;;;;;9.90;8.38;;;13.60;49.50;;;;;;5070803;28;20033;-72
2022/04/20 12:11:09;;;;;;;10.53;9.30;;;13.60;49.10;;;;;;5082684;28;20028;-72
2022/04/20 12:13:36;;;;;;;11.63;8.48;;;13.50;48.20;;;;;;5094740;28;20252;-71
2022/04/20 12:16:10;;;;;;;11.50;8.48;;;13.50;48.50;;;;;;5094452;28;20027;-72
2022/04/20 12:18:39;;;;;;;8.85;8.05;;;13.50;48.30;;;;;;5094614;28;20016;-72
2022/04/20 12:21:07;;;;;;;9.38;8.18;;;13.50;48.20;;;;;;5094100;28;20121;-73
2022/04/20 12:23:37;;;;;;;10.88;9.82;;;13.40;47.90;;;;;;5094645;28;20099;-71
2022/04/20 12:26:07;;;;;;;10.00;9.00;;;13.40;48.30;;;;;;5094490;28;20030;-71
2022/04/20 12:28:42;;;;;;;8.93;8.02;;;13.50;48.80;;;;;;5094511;28;20027;-72
2022/04/20 12:31:12;;;;;;;9.73;7.97;;;13.50;48.80;;;;;;5093684;28;20365;-72
2022/04/20 12:33:41;;;;;;;8.35;7.43;;;13.50;48.00;;;;;;5094424;28;20056;-72
2022/04/20 12:36:11;;;;;;;8.85;6.80;;;13.50;46.00;;;;;;5093930;28;20113;-73
2022/04/20 12:38:52;;;;;;;9.25;8.02;;;13.60;45.80;;;;;;5076298;28;20031;-72
2022/04/20 12:42:02;;;;;;;9.38;7.45;;;13.60;46.20;;;;;;5093833;28;20035;-72
2022/04/20 12:44:39;;;;;;;7.57;6.78;;;13.50;45.70;;;;;;4991674;28;20038;-73
2022/04/20 12:47:08;;;;;;;9.48;7.88;;;13.50;46.20;;;;;;5087377;28;20040;-73
2022/04/20 12:49:34;;;;;;;8.25;7.38;;;13.50;46.60;;;;;;5094037;28;20020;-72
2022/04/20 12:52:29;;;;;;;8.40;7.47;;;13.40;46.00;;;;;;5094219;28;20525;-71
2022/04/20 12:55:13;;;;;;;9.38;7.55;;;13.40;45.60;;;;;;5092187;28;20037;-72
2022/04/20 13:03:30;;;;;;;9.13;7.55;;;13.60;46.40;;;;;;5093499;28;20431;-71
2022/04/20 13:05:56;;;;;;;8.98;7.57;;;13.60;45.90;;;;;;5093976;28;20028;-73
2022/04/20 13:08:21;;;;;;;9.75;7.25;;;13.60;45.10;;;;;;5093000;28;20077;-73
2022/04/20 13:10:49;;;;;;;7.60;6.70;;;13.60;44.90;;;;;;5075731;28;20488;-73
2022/04/20 13:13:15;;;;;;;9.85;7.13;;;13.50;45.30;;;;;;5093373;28;20030;-73
2022/04/20 13:15:41;;;;;;;8.20;7.35;;;13.50;46.30;;;;;;5093903;28;20050;-72
2022/04/20 13:18:09;;;;;;;8.63;6.90;;;13.50;46.80;;;;;;5093837;28;20020;-72